Terminal Aerodrome Forecast
Issued by NWS Bismarck, ND

Home | Current Version | Previous Version | Text Only | Print | Product List | Glossary Off
Versions: 1 2 3 4 5 6 7 8 9 10 11 12 13 14 15 16

000
FTUS43 KBIS 270422 AAB
TAFBIS
TAF AMD
KBIS 270422Z 2704/2724 09006KT 4SM -RA BR OVC006
      TEMPO 2704/2708 2SM -RA BR OVC004
     FM271000 06010KT 2SM -RA SCT004 OVC008
     FM271600 06015G23KT 5SM -RA OVC015
     FM272200 06015KT P6SM -RA OVC025=

USA.gov is the U.S. government's official web portal to all federal, state and local government web resources and services.